Terminal Aerodrome Forecast
Issued by NWS

Home | Current Version | Previous Version | Graphics & Text | Print | Product List | Glossary On
Versions: 1 2 3 4 5 6 7 8 9 10 11 12 13 14 15 16 17 18
154
FTUS43 KGRB 281728 AAA
TAFMTW
TAF AMD
KMTW 281728Z 2817/2918 26006KT P6SM BKN008 BKN060
     FM282000 22006KT P6SM BKN150
     FM282200 25006KT P6SM VCSH SCT050 BKN110
     FM290200 25005KT P6SM BKN100
     FM291300 26014G23KT P6SM SCT080=

USA.gov is the U.S. government's official web portal to all federal, state and local government web resources and services.